Alpha, New Jersey
Current Conditions -  °F | °C
As of 1:51 AM on Friday 28 Nov 2014 (Local Time) from KABE Reporting Station
Light Snow Light Snow  
Wind Chill: -2°   Ceiling: 4800
Heat Index: -2°   Visibility: 5mi
Dew Point: -4°   Wind: 0mph
Humidity: 88%   Direction: NA
Pressure: 30.1"   Gusts: NA
Location:  40.7083°N, 75.1472°W
Report Text: KABE 280651Z 00000KT 5SM -SN BR FEW036 OVC048 M02/M04 A3010 RMK AO2 SNB42 SLP197 P0000 T10221039 $
Loading
Personal Weather Stations






























Interactive Weather Map New forecast layout! Learn more

10-Day Weather Forecast

Advertisements
Track Severe Weather on mobile